sensor_id;sensor_type;location;lat;lon;timestamp;pressure;altitude;pressure_sealevel;temperature;humidity
71043;BME280;58696;52.134;5.500;2023-03-04T00:00:34;102840.06;;;5.35;76.04
71043;BME280;58696;52.134;5.500;2023-03-04T00:03:03;102841.78;;;5.34;75.99
71043;BME280;58696;52.134;5.500;2023-03-04T00:05:32;102832.50;;;5.33;76.20
71043;BME280;58696;52.134;5.500;2023-03-04T00:08:01;102839.25;;;5.34;76.38
71043;BME280;58696;52.134;5.500;2023-03-04T00:10:30;102833.41;;;5.32;76.56
71043;BME280;58696;52.134;5.500;2023-03-04T00:12:56;102832.59;;;5.32;76.66
71043;BME280;58696;52.134;5.500;2023-03-04T00:15:23;102838.63;;;5.31;77.14
71043;BME280;58696;52.134;5.500;2023-03-04T00:17:49;102835.13;;;5.32;76.72
71043;BME280;58696;52.134;5.500;2023-03-04T00:20:16;102838.44;;;5.34;75.86
71043;BME280;58696;52.134;5.500;2023-03-04T00:22:47;102834.22;;;5.33;75.90
71043;BME280;58696;52.134;5.500;2023-03-04T00:25:16;102834.22;;;5.33;76.00
71043;BME280;58696;52.134;5.500;2023-03-04T00:27:45;102823.22;;;5.32;76.25
71043;BME280;58696;52.134;5.500;2023-03-04T00:30:14;102839.44;;;5.31;76.41
71043;BME280;58696;52.134;5.500;2023-03-04T00:32:47;102831.88;;;5.30;76.32
71043;BME280;58696;52.134;5.500;2023-03-04T00:35:14;102836.97;;;5.30;76.06
71043;BME280;58696;52.134;5.500;2023-03-04T00:37:41;102835.13;;;5.32;75.92
71043;BME280;58696;52.134;5.500;2023-03-04T00:40:08;102840.25;;;5.32;75.95
71043;BME280;58696;52.134;5.500;2023-03-04T00:42:37;102834.44;;;5.30;75.92
71043;BME280;58696;52.134;5.500;2023-03-04T00:45:07;102840.34;;;5.30;75.87
71043;BME280;58696;52.134;5.500;2023-03-04T00:47:39;102839.44;;;5.31;75.74
71043;BME280;58696;52.134;5.500;2023-03-04T00:50:06;102831.88;;;5.30;75.79
71043;BME280;58696;52.134;5.500;2023-03-04T00:52:35;102832.69;;;5.30;75.87
71043;BME280;58696;52.134;5.500;2023-03-04T00:55:04;102833.63;;;5.29;76.14
71043;BME280;58696;52.134;5.500;2023-03-04T00:57:36;102826.91;;;5.28;76.35
71043;BME280;58696;52.134;5.500;2023-03-04T01:00:03;102829.50;;;5.26;76.47
71043;BME280;58696;52.134;5.500;2023-03-04T01:02:32;102835.53;;;5.25;76.96
71043;BME280;58696;52.134;5.500;2023-03-04T01:05:01;102840.53;;;5.27;76.89
71043;BME280;58696;52.134;5.500;2023-03-04T01:07:27;102838.19;;;5.24;76.94
71043;BME280;58696;52.134;5.500;2023-03-04T01:09:54;102835.63;;;5.24;76.77
71043;BME280;58696;52.134;5.500;2023-03-04T01:12:22;102838.19;;;5.24;76.49
71043;BME280;58696;52.134;5.500;2023-03-04T01:14:51;102836.28;;;5.27;75.31
71043;BME280;58696;52.134;5.500;2023-03-04T01:17:20;102833.72;;;5.27;75.61
71043;BME280;58696;52.134;5.500;2023-03-04T01:19:49;102835.44;;;5.27;75.50
71043;BME280;58696;52.134;5.500;2023-03-04T01:22:18;102822.69;;;5.27;74.95
71043;BME280;58696;52.134;5.500;2023-03-04T01:24:44;102830.25;;;5.28;74.60
71043;BME280;58696;52.134;5.500;2023-03-04T01:27:11;102830.97;;;5.31;74.06
71043;BME280;58696;52.134;5.500;2023-03-04T01:29:38;102835.13;;;5.32;73.80
71043;BME280;58696;52.134;5.500;2023-03-04T01:32:09;102819.94;;;5.30;73.54
71043;BME280;58696;52.134;5.500;2023-03-04T01:34:38;102819.94;;;5.30;73.73
71043;BME280;58696;52.134;5.500;2023-03-04T01:37:05;102815.78;;;5.29;73.73
71043;BME280;58696;52.134;5.500;2023-03-04T01:39:31;102808.22;;;5.27;73.64
71043;BME280;58696;52.134;5.500;2023-03-04T01:41:58;102811.69;;;5.26;73.80
71043;BME280;58696;52.134;5.500;2023-03-04T01:44:25;102809.22;;;5.25;74.09
71043;BME280;58696;52.134;5.500;2023-03-04T01:46:57;102816.06;;;5.24;74.27
71043;BME280;58696;52.134;5.500;2023-03-04T01:49:26;102800.88;;;5.23;74.42
71043;BME280;58696;52.134;5.500;2023-03-04T01:51:53;102797.50;;;5.22;74.79
71043;BME280;58696;52.134;5.500;2023-03-04T01:54:25;102799.25;;;5.22;75.07
71043;BME280;58696;52.134;5.500;2023-03-04T01:56:54;102797.50;;;5.22;75.16
71043;BME280;58696;52.134;5.500;2023-03-04T01:59:28;102789.88;;;5.22;75.32
71043;BME280;58696;52.134;5.500;2023-03-04T02:01:59;102787.31;;;5.22;75.45
71043;BME280;58696;52.134;5.500;2023-03-04T02:04:29;102779.66;;;5.22;75.51
71043;BME280;58696;52.134;5.500;2023-03-04T02:07:00;102779.75;;;5.21;75.68
71043;BME280;58696;52.134;5.500;2023-03-04T02:09:33;102773.84;;;5.20;75.81
71043;BME280;58696;52.134;5.500;2023-03-04T02:12:03;102783.22;;;5.20;76.03
71043;BME280;58696;52.134;5.500;2023-03-04T02:14:29;102772.09;;;5.21;75.87
71043;BME280;58696;52.134;5.500;2023-03-04T02:16:56;102760.28;;;5.20;76.10
71043;BME280;58696;52.134;5.500;2023-03-04T02:19:51;102768.84;;;5.19;76.37
71043;BME280;58696;52.134;5.500;2023-03-04T02:22:15;102768.84;;;5.19;76.00
71043;BME280;58696;52.134;5.500;2023-03-04T02:24:47;102762.81;;;5.20;76.00
71043;BME280;58696;52.134;5.500;2023-03-04T02:27:18;102760.16;;;5.21;75.60
71043;BME280;58696;52.134;5.500;2023-03-04T02:29:47;102757.63;;;5.21;75.54
71043;BME280;58696;52.134;5.500;2023-03-04T02:32:17;102763.56;;;5.22;75.20
71043;BME280;58696;52.134;5.500;2023-03-04T02:34:53;102752.53;;;5.21;74.77
71043;BME280;58696;52.134;5.500;2023-03-04T02:37:22;102755.19;;;5.20;74.78
71043;BME280;58696;52.134;5.500;2023-03-04T02:39:51;102753.38;;;5.22;74.01
71043;BME280;58696;52.134;5.500;2023-03-04T02:42:20;102749.97;;;5.21;74.30
71043;BME280;58696;52.134;5.500;2023-03-04T02:45:00;102747.34;;;5.23;73.66
71043;BME280;58696;52.134;5.500;2023-03-04T02:47:29;102752.44;;;5.23;73.70
71043;BME280;58696;52.134;5.500;2023-03-04T02:49:58;102744.88;;;5.21;73.63
71043;BME280;58696;52.134;5.500;2023-03-04T02:52:27;102740.69;;;5.20;73.50
71043;BME280;58696;52.134;5.500;2023-03-04T02:54:54;102748.34;;;5.20;73.50
71043;BME280;58696;52.134;5.500;2023-03-04T02:57:20;102746.72;;;5.19;73.09
71043;BME280;58696;52.134;5.500;2023-03-04T02:59:49;102740.00;;;5.18;72.48
71043;BME280;58696;52.134;5.500;2023-03-04T03:02:20;102737.56;;;5.17;72.84
71043;BME280;58696;52.134;5.500;2023-03-04T03:04:46;102742.72;;;5.15;73.41
71043;BME280;58696;52.134;5.500;2023-03-04T03:07:13;102734.38;;;5.13;73.40
71043;BME280;58696;52.134;5.500;2023-03-04T03:09:42;102731.84;;;5.13;72.94
71043;BME280;58696;52.134;5.500;2023-03-04T03:12:08;102726.84;;;5.12;72.97
71043;BME280;58696;52.134;5.500;2023-03-04T03:14:37;102733.66;;;5.11;73.21
71043;BME280;58696;52.134;5.500;2023-03-04T03:17:06;102724.38;;;5.10;73.40
71043;BME280;58696;52.134;5.500;2023-03-04T03:19:35;102719.38;;;5.09;73.65
71043;BME280;58696;52.134;5.500;2023-03-04T03:22:08;102723.66;;;5.08;73.60
71043;BME280;58696;52.134;5.500;2023-03-04T03:24:34;102722.97;;;5.06;73.83
71043;BME280;58696;52.134;5.500;2023-03-04T03:27:02;102718.69;;;5.07;74.07
71043;BME280;58696;52.134;5.500;2023-03-04T03:29:29;102716.13;;;5.07;74.18
71043;BME280;58696;52.134;5.500;2023-03-04T03:31:56;102719.59;;;5.06;74.34
71043;BME280;58696;52.134;5.500;2023-03-04T03:34:26;102711.94;;;5.06;74.48
71043;BME280;58696;52.134;5.500;2023-03-04T03:36:52;102713.66;;;5.05;74.52
71043;BME280;58696;52.134;5.500;2023-03-04T03:39:19;102707.75;;;5.05;74.41
71043;BME280;58696;52.134;5.500;2023-03-04T03:41:45;102712.84;;;5.05;74.44
71043;BME280;58696;52.134;5.500;2023-03-04T03:44:12;102707.75;;;5.05;74.65
71043;BME280;58696;52.134;5.500;2023-03-04T03:46:38;102712.84;;;5.05;74.76
71043;BME280;58696;52.134;5.500;2023-03-04T03:49:10;102711.09;;;5.05;75.08
71043;BME280;58696;52.134;5.500;2023-03-04T03:51:36;102708.56;;;5.05;75.08
71043;BME280;58696;52.134;5.500;2023-03-04T03:54:03;102711.94;;;5.06;75.38
71043;BME280;58696;52.134;5.500;2023-03-04T03:56:32;102714.56;;;5.04;75.42
71043;BME280;58696;52.134;5.500;2023-03-04T03:59:01;102717.88;;;5.06;75.90
71043;BME280;58696;52.134;5.500;2023-03-04T04:01:29;102719.38;;;5.09;76.34
71043;BME280;58696;52.134;5.500;2023-03-04T04:03:56;102711.84;;;5.07;76.81
71043;BME280;58696;52.134;5.500;2023-03-04T04:06:25;102714.38;;;5.07;76.73
71043;BME280;58696;52.134;5.500;2023-03-04T04:08:54;102720.41;;;5.06;76.73
71043;BME280;58696;52.134;5.500;2023-03-04T04:11:20;102712.84;;;5.05;75.90
71043;BME280;58696;52.134;5.500;2023-03-04T04:13:47;102719.59;;;5.06;75.94
71043;BME280;58696;52.134;5.500;2023-03-04T04:16:14;102724.69;;;5.06;75.98
71043;BME280;58696;52.134;5.500;2023-03-04T04:18:43;102716.13;;;5.07;75.76
71043;BME280;58696;52.134;5.500;2023-03-04T04:21:12;102723.78;;;5.07;75.80
71043;BME280;58696;52.134;5.500;2023-03-04T04:23:39;102721.22;;;5.07;76.07
71043;BME280;58696;52.134;5.500;2023-03-04T04:26:06;102718.75;;;5.05;76.03
71043;BME280;58696;52.134;5.500;2023-03-04T04:28:37;102715.38;;;5.05;75.96
71043;BME280;58696;52.134;5.500;2023-03-04T04:31:08;102725.41;;;5.08;76.39
71043;BME280;58696;52.134;5.500;2023-03-04T04:33:36;102718.69;;;5.07;76.26
71043;BME280;58696;52.134;5.500;2023-03-04T04:36:03;102719.66;;;5.04;76.42
71043;BME280;58696;52.134;5.500;2023-03-04T04:38:30;102728.25;;;5.03;76.68
71043;BME280;58696;52.134;5.500;2023-03-04T04:40:59;102718.03;;;5.03;76.51
71043;BME280;58696;52.134;5.500;2023-03-04T04:43:26;102730.78;;;5.03;76.58
71043;BME280;58696;52.134;5.500;2023-03-04T04:45:52;102727.53;;;5.01;76.93
71043;BME280;58696;52.134;5.500;2023-03-04T04:48:21;102730.16;;;4.99;77.15
71043;BME280;58696;52.134;5.500;2023-03-04T04:50:55;102732.91;;;4.96;77.39
71043;BME280;58696;52.134;5.500;2023-03-04T04:53:21;102727.00;;;4.96;77.59
71043;BME280;58696;52.134;5.500;2023-03-04T04:55:50;102727.19;;;4.93;77.71
71043;BME280;58696;52.134;5.500;2023-03-04T04:58:21;102723.72;;;4.94;77.99
71043;BME280;58696;52.134;5.500;2023-03-04T05:00:48;102723.72;;;4.94;77.74
71043;BME280;58696;52.134;5.500;2023-03-04T05:03:16;102728.75;;;4.95;77.65
71043;BME280;58696;52.134;5.500;2023-03-04T05:05:51;102727.09;;;4.94;77.54
71043;BME280;58696;52.134;5.500;2023-03-04T05:08:17;102724.53;;;4.94;77.40
71043;BME280;58696;52.134;5.500;2023-03-04T05:10:48;102726.38;;;4.92;77.67
71043;BME280;58696;52.134;5.500;2023-03-04T05:13:18;102723.84;;;4.92;77.49
71043;BME280;58696;52.134;5.500;2023-03-04T05:15:45;102712.72;;;4.93;77.42
71043;BME280;58696;52.134;5.500;2023-03-04T05:18:14;102718.63;;;4.94;77.51
71043;BME280;58696;52.134;5.500;2023-03-04T05:20:41;102716.00;;;4.95;77.16
71043;BME280;58696;52.134;5.500;2023-03-04T05:23:09;102723.53;;;4.97;76.96
71043;BME280;58696;52.134;5.500;2023-03-04T05:25:36;102720.88;;;4.98;76.91
71043;BME280;58696;52.134;5.500;2023-03-04T05:28:05;102722.63;;;4.98;77.00
71043;BME280;58696;52.134;5.500;2023-03-04T05:30:41;102709.25;;;4.94;77.08
71043;BME280;58696;52.134;5.500;2023-03-04T05:33:12;102721.91;;;4.96;77.01
71043;BME280;58696;52.134;5.500;2023-03-04T05:35:43;102719.38;;;4.96;77.35
71043;BME280;58696;52.134;5.500;2023-03-04T05:38:18;102726.19;;;4.95;77.42
71043;BME280;58696;52.134;5.500;2023-03-04T05:40:45;102722.84;;;4.95;77.52
71043;BME280;58696;52.134;5.500;2023-03-04T05:43:15;102725.38;;;4.95;77.42
71043;BME280;58696;52.134;5.500;2023-03-04T05:45:44;102722.72;;;4.96;77.55
71043;BME280;58696;52.134;5.500;2023-03-04T05:48:11;102720.88;;;4.98;77.36
71043;BME280;58696;52.134;5.500;2023-03-04T05:50:37;102727.72;;;4.98;77.37
71043;BME280;58696;52.134;5.500;2023-03-04T05:53:06;102726.78;;;4.99;77.48
71043;BME280;58696;52.134;5.500;2023-03-04T05:55:37;102727.59;;;4.99;77.67
71043;BME280;58696;52.134;5.500;2023-03-04T05:58:06;102729.44;;;4.97;77.71
71043;BME280;58696;52.134;5.500;2023-03-04T06:00:32;102730.38;;;4.96;77.88
71043;BME280;58696;52.134;5.500;2023-03-04T06:03:01;102723.66;;;4.95;78.38
71043;BME280;58696;52.134;5.500;2023-03-04T06:05:27;102722.84;;;4.95;78.46
71043;BME280;58696;52.134;5.500;2023-03-04T06:07:54;102720.28;;;4.95;78.61
71043;BME280;58696;52.134;5.500;2023-03-04T06:10:23;102725.47;;;4.93;78.83
71043;BME280;58696;52.134;5.500;2023-03-04T06:12:51;102721.28;;;4.92;78.96
71043;BME280;58696;52.134;5.500;2023-03-04T06:15:18;102726.47;;;4.91;79.32
71043;BME280;58696;52.134;5.500;2023-03-04T06:17:44;102725.56;;;4.92;79.77
71043;BME280;58696;52.134;5.500;2023-03-04T06:20:11;102727.19;;;4.93;79.87
71043;BME280;58696;52.134;5.500;2023-03-04T06:22:38;102722.91;;;4.93;79.91
71043;BME280;58696;52.134;5.500;2023-03-04T06:25:05;102722.09;;;4.93;80.01
71043;BME280;58696;52.134;5.500;2023-03-04T06:27:37;102728.13;;;4.92;80.11
71043;BME280;58696;52.134;5.500;2023-03-04T06:30:04;102723.03;;;4.92;80.25
71043;BME280;58696;52.134;5.500;2023-03-04T06:32:33;102728.13;;;4.92;80.50
71043;BME280;58696;52.134;5.500;2023-03-04T06:35:05;102725.56;;;4.92;80.53
71043;BME280;58696;52.134;5.500;2023-03-04T06:37:32;102729.84;;;4.91;80.79
71043;BME280;58696;52.134;5.500;2023-03-04T06:39:58;102726.47;;;4.91;81.14
71043;BME280;58696;52.134;5.500;2023-03-04T06:42:28;102735.75;;;4.92;81.08
71043;BME280;58696;52.134;5.500;2023-03-04T06:44:54;102731.47;;;4.92;81.10
71043;BME280;58696;52.134;5.500;2023-03-04T06:47:21;102734.84;;;4.93;81.34
71043;BME280;58696;52.134;5.500;2023-03-04T06:49:50;102744.09;;;4.94;81.49
71043;BME280;58696;52.134;5.500;2023-03-04T06:52:20;102729.75;;;4.93;81.78
71043;BME280;58696;52.134;5.500;2023-03-04T06:54:46;102740.16;;;4.90;82.34
71043;BME280;58696;52.134;5.500;2023-03-04T06:57:15;102739.22;;;4.91;82.47
71043;BME280;58696;52.134;5.500;2023-03-04T06:59:41;102740.22;;;4.88;82.77
71043;BME280;58696;52.134;5.500;2023-03-04T07:02:12;102743.78;;;4.86;82.87
71043;BME280;58696;52.134;5.500;2023-03-04T07:04:39;102748.78;;;4.87;83.01
71043;BME280;58696;52.134;5.500;2023-03-04T07:07:05;102738.94;;;4.95;82.81
71043;BME280;58696;52.134;5.500;2023-03-04T07:09:32;102745.97;;;5.05;82.80
71043;BME280;58696;52.134;5.500;2023-03-04T07:11:58;102743.03;;;5.11;82.70
71043;BME280;58696;52.134;5.500;2023-03-04T07:14:25;102743.94;;;5.10;82.96
71043;BME280;58696;52.134;5.500;2023-03-04T07:16:53;102756.91;;;5.07;82.90
71043;BME280;58696;52.134;5.500;2023-03-04T07:19:22;102751.81;;;5.07;83.00
71043;BME280;58696;52.134;5.500;2023-03-04T07:21:51;102750.66;;;5.11;83.21
71043;BME280;58696;52.134;5.500;2023-03-04T07:24:20;102753.03;;;5.14;83.25
71043;BME280;58696;52.134;5.500;2023-03-04T07:26:46;102747.13;;;5.13;82.98
71043;BME280;58696;52.134;5.500;2023-03-04T07:29:15;102755.75;;;5.11;83.26
71043;BME280;58696;52.134;5.500;2023-03-04T07:31:44;102747.63;;;5.18;83.30
71043;BME280;58696;52.134;5.500;2023-03-04T07:34:14;102748.88;;;5.25;82.94
71043;BME280;58696;52.134;5.500;2023-03-04T07:36:43;102752.25;;;5.39;82.96
71043;BME280;58696;52.134;5.500;2023-03-04T07:39:11;102754.81;;;5.51;82.76
71043;BME280;58696;52.134;5.500;2023-03-04T07:41:39;102752.88;;;5.55;82.66
71043;BME280;58696;52.134;5.500;2023-03-04T07:44:08;102756.94;;;5.58;82.59
71043;BME280;58696;52.134;5.500;2023-03-04T07:46:38;102755.72;;;5.63;82.44
71043;BME280;58696;52.134;5.500;2023-03-04T07:49:06;102760.44;;;5.57;82.40
71043;BME280;58696;52.134;5.500;2023-03-04T07:51:35;102756.94;;;5.58;82.71
71043;BME280;58696;52.134;5.500;2023-03-04T07:54:03;102758.16;;;5.65;82.64
71043;BME280;58696;52.134;5.500;2023-03-04T07:56:35;102753.06;;;5.65;82.75
71043;BME280;58696;52.134;5.500;2023-03-04T07:59:03;102759.19;;;5.75;82.82
71043;BME280;58696;52.134;5.500;2023-03-04T08:01:35;102758.69;;;5.83;82.69
71043;BME280;58696;52.134;5.500;2023-03-04T08:04:06;102763.19;;;5.92;82.81
71043;BME280;58696;52.134;5.500;2023-03-04T08:06:33;102768.91;;;5.95;82.45
71043;BME280;58696;52.134;5.500;2023-03-04T08:09:04;102770.84;;;6.04;82.34
71043;BME280;58696;52.134;5.500;2023-03-04T08:11:37;102768.00;;;6.09;82.03
71043;BME280;58696;52.134;5.500;2023-03-04T08:14:05;102762.34;;;6.17;81.71
71043;BME280;58696;52.134;5.500;2023-03-04T08:16:32;102771.13;;;6.13;81.30
71043;BME280;58696;52.134;5.500;2023-03-04T08:19:00;102770.00;;;6.17;81.76
71043;BME280;58696;52.134;5.500;2023-03-04T08:21:29;102770.38;;;6.23;81.81
71043;BME280;58696;52.134;5.500;2023-03-04T08:23:59;102770.56;;;6.33;81.33
71043;BME280;58696;52.134;5.500;2023-03-04T08:26:39;102773.50;;;6.40;80.89
71043;BME280;58696;52.134;5.500;2023-03-04T08:29:14;102768.78;;;6.46;80.73
71043;BME280;58696;52.134;5.500;2023-03-04T08:31:41;102777.38;;;6.45;80.67
71043;BME280;58696;52.134;5.500;2023-03-04T08:34:15;102774.13;;;6.43;80.97
71043;BME280;58696;52.134;5.500;2023-03-04T08:36:42;102775.56;;;6.47;81.04
71043;BME280;58696;52.134;5.500;2023-03-04T08:39:11;102770.50;;;6.58;81.11
71043;BME280;58696;52.134;5.500;2023-03-04T08:41:38;102772.66;;;6.52;81.17
71043;BME280;58696;52.134;5.500;2023-03-04T08:44:08;102773.09;;;6.46;81.24
71043;BME280;58696;52.134;5.500;2023-03-04T08:46:37;102779.25;;;6.43;81.96
71043;BME280;58696;52.134;5.500;2023-03-04T08:49:04;102775.97;;;6.41;82.13
71043;BME280;58696;52.134;5.500;2023-03-04T08:51:33;102774.66;;;6.36;83.18
71043;BME280;58696;52.134;5.500;2023-03-04T08:54:04;102778.28;;;6.20;84.00
71043;BME280;58696;52.134;5.500;2023-03-04T08:56:31;102775.09;;;6.17;84.31
71043;BME280;58696;52.134;5.500;2023-03-04T08:59:00;102778.28;;;6.20;84.42
71043;BME280;58696;52.134;5.500;2023-03-04T09:01:30;102771.44;;;6.21;84.98
71043;BME280;58696;52.134;5.500;2023-03-04T09:03:57;102776.75;;;6.18;85.23
71043;BME280;58696;52.134;5.500;2023-03-04T09:06:26;102778.97;;;6.22;85.17
71043;BME280;58696;52.134;5.500;2023-03-04T09:08:55;102778.63;;;6.40;85.14
71043;BME280;58696;52.134;5.500;2023-03-04T09:11:24;102773.91;;;6.46;85.22
71043;BME280;58696;52.134;5.500;2023-03-04T09:13:51;102774.34;;;6.40;85.47
71043;BME280;58696;52.134;5.500;2023-03-04T09:16:19;102771.34;;;6.46;85.90
71043;BME280;58696;52.134;5.500;2023-03-04T09:18:51;102762.56;;;6.74;85.79
71043;BME280;58696;52.134;5.500;2023-03-04T09:21:19;102761.41;;;7.71;83.39
71043;BME280;58696;52.134;5.500;2023-03-04T09:23:45;102764.91;;;7.81;81.54
71043;BME280;58696;52.134;5.500;2023-03-04T09:26:22;102766.78;;;7.68;81.78
71043;BME280;58696;52.134;5.500;2023-03-04T09:28:55;102775.72;;;7.62;81.48
71043;BME280;58696;52.134;5.500;2023-03-04T09:31:23;102764.88;;;7.48;80.98
71043;BME280;58696;52.134;5.500;2023-03-04T09:33:53;102774.63;;;7.31;81.53
71043;BME280;58696;52.134;5.500;2023-03-04T09:36:20;102765.88;;;7.23;81.73
71043;BME280;58696;52.134;5.500;2023-03-04T09:38:47;102766.75;;;7.10;81.88
71043;BME280;58696;52.134;5.500;2023-03-04T09:41:24;102759.44;;;7.06;82.31
71043;BME280;58696;52.134;5.500;2023-03-04T09:43:52;102759.81;;;7.13;82.45
71043;BME280;58696;52.134;5.500;2023-03-04T09:46:28;102751.69;;;7.19;81.74
71043;BME280;58696;52.134;5.500;2023-03-04T09:49:00;102758.00;;;7.37;81.67
71043;BME280;58696;52.134;5.500;2023-03-04T09:56:38;102754.41;;;6.93;82.51
71043;BME280;58696;52.134;5.500;2023-03-04T10:01:57;102742.53;;;6.92;83.44
71043;BME280;58696;52.134;5.500;2023-03-04T10:06:54;102747.13;;;7.11;83.55
71043;BME280;58696;52.134;5.500;2023-03-04T10:09:25;102740.69;;;7.41;82.97
71043;BME280;58696;52.134;5.500;2023-03-04T10:11:58;102743.38;;;7.50;82.34
71043;BME280;58696;52.134;5.500;2023-03-04T10:14:30;102736.63;;;7.72;81.66
71043;BME280;58696;52.134;5.500;2023-03-04T10:17:16;102741.41;;;7.76;81.04
71043;BME280;58696;52.134;5.500;2023-03-04T10:22:16;102739.66;;;7.54;81.31
71043;BME280;58696;52.134;5.500;2023-03-04T10:24:45;102740.34;;;7.34;81.99
71043;BME280;58696;52.134;5.500;2023-03-04T10:27:14;102733.06;;;7.17;82.76
71043;BME280;58696;52.134;5.500;2023-03-04T10:29:46;102739.13;;;7.16;83.13
71043;BME280;58696;52.134;5.500;2023-03-04T10:32:15;102738.78;;;7.20;83.59
71043;BME280;58696;52.134;5.500;2023-03-04T10:34:42;102739.88;;;7.40;83.47
71043;BME280;58696;52.134;5.500;2023-03-04T10:37:09;102731.97;;;7.54;83.26
71043;BME280;58696;52.134;5.500;2023-03-04T10:39:42;102734.44;;;7.56;83.51
71043;BME280;58696;52.134;5.500;2023-03-04T10:44:57;102737.19;;;7.30;85.47
71043;BME280;58696;52.134;5.500;2023-03-04T10:47:28;102742.84;;;7.23;86.25
71043;BME280;58696;52.134;5.500;2023-03-04T10:50:02;102737.72;;;7.11;86.90
71043;BME280;58696;52.134;5.500;2023-03-04T10:52:30;102732.50;;;7.13;87.13
71043;BME280;58696;52.134;5.500;2023-03-04T10:55:05;102741.72;;;7.38;87.62
71043;BME280;58696;52.134;5.500;2023-03-04T10:57:33;102728.25;;;7.92;87.02
71043;BME280;58696;52.134;5.500;2023-03-04T11:00:02;102725.47;;;7.84;86.07
71043;BME280;58696;52.134;5.500;2023-03-04T11:02:38;102717.78;;;8.06;86.02
71043;BME280;58696;52.134;5.500;2023-03-04T11:07:42;102720.78;;;8.23;82.77
71043;BME280;58696;52.134;5.500;2023-03-04T11:10:22;102712.63;;;8.17;83.28
71043;BME280;58696;52.134;5.500;2023-03-04T11:15:21;102720.84;;;7.67;83.70
71043;BME280;58696;52.134;5.500;2023-03-04T11:18:01;102718.16;;;7.46;84.71
71043;BME280;58696;52.134;5.500;2023-03-04T11:20:40;102720.56;;;7.25;85.97
71043;BME280;58696;52.134;5.500;2023-03-04T11:23:11;102718.66;;;7.16;86.77
71043;BME280;58696;52.134;5.500;2023-03-04T11:25:43;102718.63;;;7.04;87.46
71043;BME280;58696;52.134;5.500;2023-03-04T11:28:12;102723.03;;;6.91;89.14
71043;BME280;58696;52.134;5.500;2023-03-04T11:30:49;102721.81;;;6.84;89.17
71043;BME280;58696;52.134;5.500;2023-03-04T11:36:03;102716.75;;;6.95;88.96
71043;BME280;58696;52.134;5.500;2023-03-04T11:38:38;102714.09;;;6.97;88.56
71043;BME280;58696;52.134;5.500;2023-03-04T11:41:10;102712.03;;;7.02;87.58
71043;BME280;58696;52.134;5.500;2023-03-04T11:43:39;102712.88;;;7.25;87.52
71043;BME280;58696;52.134;5.500;2023-03-04T11:56:44;102689.84;;;7.92;83.89
71043;BME280;58696;52.134;5.500;2023-03-04T12:07:08;102673.59;;;8.25;79.46
71043;BME280;58696;52.134;5.500;2023-03-04T12:12:29;102672.25;;;7.99;77.48
71043;BME280;58696;52.134;5.500;2023-03-04T12:15:16;102667.66;;;8.36;75.78
71043;BME280;58696;52.134;5.500;2023-03-04T12:25:42;102666.63;;;8.27;72.74
71043;BME280;58696;52.134;5.500;2023-03-04T12:28:30;102665.47;;;8.20;74.01
71043;BME280;58696;52.134;5.500;2023-03-04T12:41:50;102659.44;;;8.10;71.78
71043;BME280;58696;52.134;5.500;2023-03-04T12:44:31;102649.69;;;8.04;69.77
71043;BME280;58696;52.134;5.500;2023-03-04T12:52:21;102649.00;;;8.34;69.03
71043;BME280;58696;52.134;5.500;2023-03-04T12:54:54;102635.81;;;8.50;69.03
71043;BME280;58696;52.134;5.500;2023-03-04T12:57:24;102637.09;;;8.76;67.51
71043;BME280;58696;52.134;5.500;2023-03-04T12:59:58;102630.63;;;9.03;68.76
71043;BME280;58696;52.134;5.500;2023-03-04T13:10:11;102639.41;;;8.15;71.13
71043;BME280;58696;52.134;5.500;2023-03-04T13:43:27;102626.63;;;7.27;76.83
71043;BME280;58696;52.134;5.500;2023-03-04T13:45:54;102631.88;;;7.36;75.61
71043;BME280;58696;52.134;5.500;2023-03-04T13:48:25;102625.00;;;7.48;75.74
71043;BME280;58696;52.134;5.500;2023-03-04T13:50:52;102616.28;;;7.62;74.12
71043;BME280;58696;52.134;5.500;2023-03-04T13:53:21;102609.16;;;7.54;72.66
71043;BME280;58696;52.134;5.500;2023-03-04T13:58:51;102613.09;;;7.70;71.85
71043;BME280;58696;52.134;5.500;2023-03-04T14:01:25;102612.53;;;7.55;71.14
71043;BME280;58696;52.134;5.500;2023-03-04T14:03:52;102614.63;;;7.50;71.36
71043;BME280;58696;52.134;5.500;2023-03-04T14:08:49;102609.19;;;7.43;69.03
71043;BME280;58696;52.134;5.500;2023-03-04T14:11:20;102602.56;;;7.41;69.40
71043;BME280;58696;52.134;5.500;2023-03-04T14:13:50;102600.56;;;7.44;67.75
71043;BME280;58696;52.134;5.500;2023-03-04T14:16:20;102607.91;;;7.37;67.85
71043;BME280;58696;52.134;5.500;2023-03-04T14:19:01;102606.06;;;7.40;67.65
71043;BME280;58696;52.134;5.500;2023-03-04T14:21:28;102604.41;;;7.38;66.74
71043;BME280;58696;52.134;5.500;2023-03-04T14:23:59;102605.22;;;7.39;67.52
71043;BME280;58696;52.134;5.500;2023-03-04T14:26:25;102608.72;;;7.38;66.74
71043;BME280;58696;52.134;5.500;2023-03-04T14:28:53;102601.75;;;7.40;67.79
71043;BME280;58696;52.134;5.500;2023-03-04T14:31:23;102589.66;;;7.31;67.47
71043;BME280;58696;52.134;5.500;2023-03-04T14:33:56;102598.38;;;7.17;67.81
71043;BME280;58696;52.134;5.500;2023-03-04T14:36:28;102592.34;;;7.07;68.53
71043;BME280;58696;52.134;5.500;2023-03-04T14:38:58;102593.03;;;7.09;67.92
71043;BME280;58696;52.134;5.500;2023-03-04T14:46:46;102583.88;;;7.29;66.91
71043;BME280;58696;52.134;5.500;2023-03-04T14:49:31;102573.84;;;7.37;67.21
71043;BME280;58696;52.134;5.500;2023-03-04T14:51:59;102576.88;;;7.42;67.37
71043;BME280;58696;52.134;5.500;2023-03-04T14:57:01;102568.59;;;7.50;67.12
71043;BME280;58696;52.134;5.500;2023-03-04T14:59:46;102569.53;;;7.49;67.17
71043;BME280;58696;52.134;5.500;2023-03-04T15:04:47;102565.13;;;7.28;69.47
71043;BME280;58696;52.134;5.500;2023-03-04T15:07:17;102574.69;;;7.15;71.44
71043;BME280;58696;52.134;5.500;2023-03-04T15:09:51;102569.44;;;7.05;72.40
71043;BME280;58696;52.134;5.500;2023-03-04T15:12:28;102573.19;;;7.01;73.06
71043;BME280;58696;52.134;5.500;2023-03-04T15:14:58;102571.53;;;7.11;73.66